Time;durP1;ratioP1;P1;durP2;ratioP2;P2;SDS_P1;SDS_P2;PMS_P1;PMS_P2;Temp;Humidity;BMP_temperature;BMP_pressure;BME280_temperature;BME280_humidity;BME280_pressure;Samples;Min_cycle;Max_cycle;Signal;HPM_P1;HPM_P2
2022/10/14 00:01:39;;;;;;;15.73;11.10;;;;;;;;;;5037613;28;20354;-79
2022/10/14 00:04:05;;;;;;;18.67;10.93;;;;;;;;;;5038136;28;20033;-79
2022/10/14 00:06:33;;;;;;;15.07;10.67;;;;;;;;;;5036875;28;20025;-78
2022/10/14 00:09:00;;;;;;;15.07;10.53;;;;;;;;;;5050683;28;20033;-78
2022/10/14 00:11:27;;;;;;;17.10;10.80;;;;;;;;;;5026545;28;20039;-78
2022/10/14 00:13:54;;;;;;;12.57;10.30;;;;;;;;;;5041396;28;20032;-78
2022/10/14 00:16:22;;;;;;;16.03;10.30;;;;;;;;;;5037963;28;20068;-78
2022/10/14 00:18:48;;;;;;;17.93;11.27;;;;;;;;;;5037708;28;20029;-78
2022/10/14 00:21:15;;;;;;;14.90;10.00;;;;;;;;;;5037018;28;20029;-78
2022/10/14 00:23:41;;;;;;;18.20;11.60;;;;;;;;;;5037813;28;20029;-78
2022/10/14 00:26:13;;;;;;;18.63;10.63;;;;;;;;;;5036446;28;20402;-78
2022/10/14 00:28:39;;;;;;;15.77;11.63;;;;;;;;;;5025791;28;20397;-78
2022/10/14 00:31:05;;;;;;;16.90;11.27;;;;;;;;;;5033591;28;20037;-78
2022/10/14 00:33:31;;;;;;;16.47;11.90;;;;;;;;;;5033551;28;20060;-79
2022/10/14 00:35:58;;;;;;;16.20;11.27;;;;;;;;;;5037376;28;20022;-78
2022/10/14 00:38:24;;;;;;;16.27;10.63;;;;;;;;;;5039650;28;20120;-79
2022/10/14 00:40:53;;;;;;;13.87;10.27;;;;;;;;;;5047156;28;20175;-79
2022/10/14 00:43:19;;;;;;;15.07;11.80;;;;;;;;;;5037067;28;20456;-79
2022/10/14 00:45:45;;;;;;;15.80;12.10;;;;;;;;;;5037369;28;20025;-78
2022/10/14 00:48:12;;;;;;;16.20;11.70;;;;;;;;;;5036412;28;20018;-79
2022/10/14 00:50:39;;;;;;;17.23;11.67;;;;;;;;;;5036439;28;20018;-78
2022/10/14 00:53:09;;;;;;;14.07;10.53;;;;;;;;;;5036158;28;20036;-78
2022/10/14 00:55:37;;;;;;;16.17;11.37;;;;;;;;;;5035603;28;20041;-78
2022/10/14 00:58:03;;;;;;;18.57;11.60;;;;;;;;;;5036029;28;20041;-78
2022/10/14 01:00:29;;;;;;;20.07;12.60;;;;;;;;;;5049231;28;20111;-79
2022/10/14 01:02:56;;;;;;;20.43;12.27;;;;;;;;;;5024710;28;20441;-78
2022/10/14 01:05:22;;;;;;;16.37;12.53;;;;;;;;;;5036558;28;20076;-78
2022/10/14 01:08:02;;;;;;;16.67;12.13;;;;;;;;;;5036195;28;20064;-78
2022/10/14 01:10:38;;;;;;;17.80;12.40;;;;;;;;;;5048755;28;20056;-78
2022/10/14 01:13:04;;;;;;;17.20;11.17;;;;;;;;;;5053975;28;20116;-78
2022/10/14 01:15:40;;;;;;;17.47;11.60;;;;;;;;;;5037507;28;20056;-78
2022/10/14 01:18:09;;;;;;;24.50;11.97;;;;;;;;;;5034979;28;20128;-78
2022/10/14 01:20:38;;;;;;;18.73;10.97;;;;;;;;;;5034216;28;20103;-78
2022/10/14 01:23:04;;;;;;;16.77;11.57;;;;;;;;;;5034945;28;20043;-78
2022/10/14 01:25:34;;;;;;;17.30;10.97;;;;;;;;;;5018068;28;20037;-78
2022/10/14 01:28:18;;;;;;;13.07;9.77;;;;;;;;;;5034916;28;20029;-78
2022/10/14 01:31:04;;;;;;;15.77;10.63;;;;;;;;;;5013810;28;20358;-78
2022/10/14 01:33:40;;;;;;;14.07;10.63;;;;;;;;;;5034456;28;20052;-78
2022/10/14 01:36:21;;;;;;;15.90;10.40;;;;;;;;;;5030689;28;20052;-78
2022/10/14 01:38:53;;;;;;;16.70;11.10;;;;;;;;;;5025631;28;20041;-78
2022/10/14 01:41:21;;;;;;;19.80;10.45;;;;;;;;;;5012911;28;20115;-77
2022/10/14 01:43:51;;;;;;;13.40;10.27;;;;;;;;;;5023082;28;20030;-77
2022/10/14 01:46:18;;;;;;;15.70;10.40;;;;;;;;;;5012296;28;20029;-79
2022/10/14 01:48:46;;;;;;;19.50;11.50;;;;;;;;;;5032326;28;20381;-79
2022/10/14 01:51:17;;;;;;;13.97;9.90;;;;;;;;;;5027106;28;20620;-78
2022/10/14 01:53:47;;;;;;;20.13;11.07;;;;;;;;;;5030912;28;20021;-78
2022/10/14 01:56:14;;;;;;;19.03;11.83;;;;;;;;;;5040860;28;20041;-78
2022/10/14 01:58:43;;;;;;;15.77;11.30;;;;;;;;;;5024946;28;20370;-78
2022/10/14 02:01:09;;;;;;;18.97;11.70;;;;;;;;;;5030732;28;20029;-79
2022/10/14 02:03:39;;;;;;;20.37;11.63;;;;;;;;;;5030165;28;20124;-77
2022/10/14 02:06:07;;;;;;;17.07;11.27;;;;;;;;;;5039894;28;21741;-78
2022/10/14 02:08:37;;;;;;;16.80;11.57;;;;;;;;;;5030132;28;20374;-78
2022/10/14 02:11:06;;;;;;;19.70;11.70;;;;;;;;;;5031848;28;20025;-78
2022/10/14 02:13:38;;;;;;;17.53;11.70;;;;;;;;;;5039354;28;20113;-78
2022/10/14 02:16:23;;;;;;;17.63;11.70;;;;;;;;;;5044783;28;20044;-78
2022/10/14 02:18:53;;;;;;;22.00;12.40;;;;;;;;;;5025927;28;20029;-78
2022/10/14 02:21:20;;;;;;;20.33;12.10;;;;;;;;;;5028701;28;20025;-78
2022/10/14 02:23:49;;;;;;;15.63;11.97;;;;;;;;;;5021691;28;20483;-78
2022/10/14 02:26:15;;;;;;;18.73;11.57;;;;;;;;;;5031173;28;20044;-78
2022/10/14 02:28:42;;;;;;;16.83;12.30;;;;;;;;;;5027914;28;20121;-78
2022/10/14 02:31:11;;;;;;;19.47;12.37;;;;;;;;;;5031610;28;20044;-78
2022/10/14 02:33:40;;;;;;;16.23;11.37;;;;;;;;;;5033977;28;20590;-78
2022/10/14 02:36:10;;;;;;;17.93;11.87;;;;;;;;;;5036139;28;20033;-78
2022/10/14 02:38:36;;;;;;;17.00;11.43;;;;;;;;;;5052231;28;20033;-78
2022/10/14 02:41:04;;;;;;;19.50;12.37;;;;;;;;;;5037244;28;20503;-77
2022/10/14 02:43:30;;;;;;;15.37;11.27;;;;;;;;;;5017855;28;20037;-77
2022/10/14 02:45:57;;;;;;;18.37;12.10;;;;;;;;;;5035129;28;20112;-78
2022/10/14 02:48:23;;;;;;;15.73;11.00;;;;;;;;;;5025501;28;20079;-77
2022/10/14 02:50:51;;;;;;;16.27;11.63;;;;;;;;;;5035424;28;20049;-78
2022/10/14 02:53:17;;;;;;;16.30;11.50;;;;;;;;;;5036045;28;20171;-78
2022/10/14 02:55:43;;;;;;;17.73;10.53;;;;;;;;;;5028593;28;20042;-78
2022/10/14 02:58:09;;;;;;;13.50;10.67;;;;;;;;;;5026559;28;20105;-78
2022/10/14 03:00:35;;;;;;;16.07;10.20;;;;;;;;;;5032514;28;20041;-78
2022/10/14 03:03:01;;;;;;;20.80;10.73;;;;;;;;;;5035051;28;20509;-78
2022/10/14 03:05:27;;;;;;;15.23;10.33;;;;;;;;;;5033747;28;20120;-78
2022/10/14 03:07:53;;;;;;;15.57;11.17;;;;;;;;;;5035704;28;20021;-78
2022/10/14 03:10:21;;;;;;;15.57;9.97;;;;;;;;;;5033790;28;20449;-78
2022/10/14 03:12:47;;;;;;;13.90;9.53;;;;;;;;;;5034383;28;20059;-78
2022/10/14 03:15:14;;;;;;;14.43;10.17;;;;;;;;;;5029788;28;20129;-78
2022/10/14 03:17:40;;;;;;;15.33;9.87;;;;;;;;;;5035250;28;20025;-78
2022/10/14 03:20:06;;;;;;;13.07;9.27;;;;;;;;;;5024952;28;20641;-78
2022/10/14 03:22:32;;;;;;;14.10;9.23;;;;;;;;;;5036495;28;20041;-79
2022/10/14 03:24:58;;;;;;;13.70;9.07;;;;;;;;;;5041813;28;20124;-78
2022/10/14 03:27:24;;;;;;;12.03;9.27;;;;;;;;;;5033338;28;20447;-78
2022/10/14 03:29:50;;;;;;;13.00;8.90;;;;;;;;;;5031940;28;20080;-78
2022/10/14 03:32:16;;;;;;;16.47;9.13;;;;;;;;;;5034895;28;20030;-78
2022/10/14 03:34:42;;;;;;;11.67;8.83;;;;;;;;;;5027314;28;20026;-78
2022/10/14 03:37:08;;;;;;;14.87;9.03;;;;;;;;;;5034480;28;20041;-78
2022/10/14 03:39:34;;;;;;;12.53;8.63;;;;;;;;;;5048335;28;20030;-78
2022/10/14 03:42:03;;;;;;;15.30;9.33;;;;;;;;;;5037161;28;20513;-78
2022/10/14 03:44:29;;;;;;;11.53;8.63;;;;;;;;;;5036511;28;20033;-78
2022/10/14 03:46:54;;;;;;;10.83;7.73;;;;;;;;;;5037259;28;20033;-78
2022/10/14 03:49:20;;;;;;;12.43;8.77;;;;;;;;;;5038993;28;20481;-78
2022/10/14 03:51:46;;;;;;;9.93;7.93;;;;;;;;;;5039117;28;20060;-78
2022/10/14 03:54:12;;;;;;;13.73;8.93;;;;;;;;;;5037061;28;20057;-79
2022/10/14 03:56:38;;;;;;;14.43;9.40;;;;;;;;;;5037445;28;20026;-78
2022/10/14 03:59:04;;;;;;;15.47;9.40;;;;;;;;;;5036897;28;20032;-78
2022/10/14 04:01:30;;;;;;;13.13;9.00;;;;;;;;;;5038008;28;20176;-79
2022/10/14 04:03:56;;;;;;;10.77;8.30;;;;;;;;;;5036655;28;20021;-78
2022/10/14 04:06:22;;;;;;;11.37;8.27;;;;;;;;;;5036762;28;20061;-78
2022/10/14 04:08:48;;;;;;;12.37;8.33;;;;;;;;;;5037198;28;20350;-79
2022/10/14 04:11:17;;;;;;;12.50;8.43;;;;;;;;;;5037018;28;20030;-79
2022/10/14 04:13:44;;;;;;;12.03;7.63;;;;;;;;;;5036731;28;20036;-78
2022/10/14 04:16:10;;;;;;;10.93;7.43;;;;;;;;;;5036913;28;20088;-78
2022/10/14 04:18:37;;;;;;;11.13;7.93;;;;;;;;;;5037588;28;20116;-78
2022/10/14 04:21:05;;;;;;;11.27;7.93;;;;;;;;;;5036612;28;20056;-77
2022/10/14 04:23:31;;;;;;;11.77;8.00;;;;;;;;;;5036595;28;20029;-79
2022/10/14 04:25:57;;;;;;;10.37;7.53;;;;;;;;;;5036335;28;20449;-77
2022/10/14 04:28:23;;;;;;;12.67;7.90;;;;;;;;;;5036590;28;20021;-79
2022/10/14 04:30:49;;;;;;;14.57;7.77;;;;;;;;;;5040045;28;20406;-79
2022/10/14 04:33:15;;;;;;;10.17;7.97;;;;;;;;;;5040498;28;20025;-79
2022/10/14 04:35:41;;;;;;;10.83;7.63;;;;;;;;;;5037308;28;20044;-78
2022/10/14 04:38:08;;;;;;;14.13;8.30;;;;;;;;;;5037232;28;20034;-78
2022/10/14 04:40:34;;;;;;;10.50;7.53;;;;;;;;;;5036366;28;20504;-78
2022/10/14 04:43:00;;;;;;;12.93;8.00;;;;;;;;;;5037195;28;20041;-78
2022/10/14 04:45:26;;;;;;;9.50;7.43;;;;;;;;;;5037249;28;20029;-79
2022/10/14 04:47:54;;;;;;;12.10;7.77;;;;;;;;;;5036047;28;20371;-79
2022/10/14 04:50:20;;;;;;;10.70;7.00;;;;;;;;;;5037734;28;20025;-78
2022/10/14 04:52:47;;;;;;;9.97;7.33;;;;;;;;;;5045436;28;20112;-78
2022/10/14 04:55:12;;;;;;;12.00;7.10;;;;;;;;;;5048658;28;20446;-78
2022/10/14 04:57:42;;;;;;;9.87;7.17;;;;;;;;;;5035637;28;20026;-78
2022/10/14 05:00:09;;;;;;;7.50;6.20;;;;;;;;;;5035489;28;20472;-78
2022/10/14 05:02:34;;;;;;;8.60;6.40;;;;;;;;;;5035477;28;20378;-78
2022/10/14 05:05:00;;;;;;;9.90;6.47;;;;;;;;;;5035892;28;20030;-78
2022/10/14 05:07:26;;;;;;;8.77;6.43;;;;;;;;;;5036446;28;20142;-78
2022/10/14 05:09:53;;;;;;;7.73;6.00;;;;;;;;;;5036117;28;20021;-78
2022/10/14 05:12:19;;;;;;;7.67;5.57;;;;;;;;;;5035240;28;20033;-78
2022/10/14 05:14:45;;;;;;;9.13;6.03;;;;;;;;;;5038239;28;20030;-78
2022/10/14 05:17:11;;;;;;;7.53;5.57;;;;;;;;;;5024470;28;20104;-78
2022/10/14 05:19:37;;;;;;;9.10;6.20;;;;;;;;;;5046117;28;20034;-78
2022/10/14 05:22:03;;;;;;;9.10;6.30;;;;;;;;;;5026878;28;20044;-78
2022/10/14 05:24:29;;;;;;;9.57;5.63;;;;;;;;;;5038358;28;20035;-78
2022/10/14 05:26:55;;;;;;;6.83;5.20;;;;;;;;;;5037356;28;20025;-79
2022/10/14 05:29:21;;;;;;;8.70;5.53;;;;;;;;;;5046255;28;20104;-79
2022/10/14 05:31:47;;;;;;;8.17;5.80;;;;;;;;;;5036427;28;20055;-78
2022/10/14 05:34:13;;;;;;;6.67;5.20;;;;;;;;;;5043033;28;20604;-77
2022/10/14 05:36:39;;;;;;;7.47;6.00;;;;;;;;;;5056120;28;20033;-78
2022/10/14 05:39:08;;;;;;;7.80;5.53;;;;;;;;;;5044734;28;20029;-79
2022/10/14 05:41:34;;;;;;;7.53;5.40;;;;;;;;;;5034939;28;20661;-78
2022/10/14 05:44:03;;;;;;;6.87;4.47;;;;;;;;;;5040948;28;20049;-78
2022/10/14 05:46:29;;;;;;;7.07;4.67;;;;;;;;;;5035556;28;20108;-78
2022/10/14 05:48:56;;;;;;;9.53;4.17;;;;;;;;;;5044899;28;20049;-78
2022/10/14 05:51:22;;;;;;;5.80;4.33;;;;;;;;;;5034518;28;20029;-78
2022/10/14 05:53:48;;;;;;;7.07;4.57;;;;;;;;;;5020637;28;20028;-78
2022/10/14 05:56:15;;;;;;;4.90;4.40;;;;;;;;;;5027087;28;20026;-78
2022/10/14 05:58:41;;;;;;;4.93;3.50;;;;;;;;;;5048740;28;20060;-78
2022/10/14 06:01:08;;;;;;;6.47;3.90;;;;;;;;;;5034273;28;20442;-78
2022/10/14 06:03:34;;;;;;;5.17;3.50;;;;;;;;;;5035330;28;20502;-78
2022/10/14 06:06:00;;;;;;;7.07;4.03;;;;;;;;;;5034978;28;20044;-78
2022/10/14 06:08:26;;;;;;;4.83;4.17;;;;;;;;;;5035188;28;20026;-78
2022/10/14 06:10:52;;;;;;;4.43;3.73;;;;;;;;;;5045480;28;20508;-78
2022/10/14 06:13:18;;;;;;;5.57;3.60;;;;;;;;;;5047727;28;20366;-78
2022/10/14 06:15:44;;;;;;;7.53;4.07;;;;;;;;;;5051308;28;20120;-77
2022/10/14 06:18:11;;;;;;;8.10;4.87;;;;;;;;;;5048151;28;20026;-78
2022/10/14 06:20:37;;;;;;;9.37;6.07;;;;;;;;;;5034835;28;20036;-78
2022/10/14 06:23:03;;;;;;;9.07;4.87;;;;;;;;;;5030096;28;20026;-79
2022/10/14 06:25:31;;;;;;;6.47;4.80;;;;;;;;;;5025881;28;20079;-78
2022/10/14 06:28:03;;;;;;;8.43;5.43;;;;;;;;;;5035351;28;20029;-79
2022/10/14 06:30:29;;;;;;;5.67;4.53;;;;;;;;;;5035388;28;20025;-78
2022/10/14 06:32:56;;;;;;;8.00;5.23;;;;;;;;;;5034488;28;20121;-77
2022/10/14 06:35:22;;;;;;;5.90;5.13;;;;;;;;;;5034115;28;20450;-78
2022/10/14 06:37:50;;;;;;;8.63;5.50;;;;;;;;;;5035210;28;20022;-77
2022/10/14 06:40:16;;;;;;;9.27;4.77;;;;;;;;;;5034317;28;20117;-79
2022/10/14 06:42:42;;;;;;;6.03;4.73;;;;;;;;;;5035102;28;20094;-77
2022/10/14 06:45:09;;;;;;;6.63;5.07;;;;;;;;;;5035355;28;20026;-78
2022/10/14 06:47:37;;;;;;;8.00;5.33;;;;;;;;;;5030351;28;20029;-79
2022/10/14 06:50:04;;;;;;;6.20;5.32;;;;;;;;;;5033275;28;20108;-80
2022/10/14 06:52:30;;;;;;;7.03;5.70;;;;;;;;;;5027370;28;20029;-78
2022/10/14 06:54:56;;;;;;;5.50;4.63;;;;;;;;;;5043078;28;20026;-79
2022/10/14 06:57:23;;;;;;;8.97;5.37;;;;;;;;;;5038201;28;20034;-79
2022/10/14 06:59:49;;;;;;;6.93;5.20;;;;;;;;;;5034543;28;20057;-79
2022/10/14 07:02:17;;;;;;;9.03;5.80;;;;;;;;;;5037392;28;20080;-77
2022/10/14 07:04:43;;;;;;;8.33;6.00;;;;;;;;;;5033894;28;20036;-78
2022/10/14 07:07:11;;;;;;;9.70;6.33;;;;;;;;;;5034550;28;20026;-77
2022/10/14 07:09:39;;;;;;;10.00;6.93;;;;;;;;;;5033898;28;20112;-78
2022/10/14 07:12:07;;;;;;;9.77;6.67;;;;;;;;;;5033455;28;20032;-77
2022/10/14 07:14:33;;;;;;;8.73;6.37;;;;;;;;;;5035276;28;20088;-78
2022/10/14 07:16:59;;;;;;;11.20;6.43;;;;;;;;;;5033600;28;20417;-78
2022/10/14 07:19:25;;;;;;;10.30;6.67;;;;;;;;;;5021750;28;20048;-78
2022/10/14 07:21:54;;;;;;;13.87;8.57;;;;;;;;;;5038077;28;20025;-78
2022/10/14 07:24:20;;;;;;;17.67;9.07;;;;;;;;;;5037035;28;20400;-78
2022/10/14 07:26:46;;;;;;;10.67;8.27;;;;;;;;;;5037838;28;20095;-77
2022/10/14 07:29:12;;;;;;;14.13;9.30;;;;;;;;;;5031569;28;20028;-77
2022/10/14 07:31:38;;;;;;;10.37;6.87;;;;;;;;;;5032168;28;20038;-77
2022/10/14 07:34:04;;;;;;;12.33;7.03;;;;;;;;;;5028970;28;20489;-77
2022/10/14 07:36:33;;;;;;;9.60;6.17;;;;;;;;;;5073438;23;20049;-78
2022/10/14 07:38:59;;;;;;;7.77;5.63;;;;;;;;;;5056240;28;20087;-78
2022/10/14 07:41:29;;;;;;;13.77;7.00;;;;;;;;;;5053446;28;20036;-77
2022/10/14 07:44:01;;;;;;;14.57;7.77;;;;;;;;;;5035159;28;20029;-77
2022/10/14 07:46:28;;;;;;;15.43;7.07;;;;;;;;;;5039848;28;20449;-78
2022/10/14 07:49:16;;;;;;;11.20;6.60;;;;;;;;;;5034006;28;20048;-76
2022/10/14 07:51:42;;;;;;;7.93;5.80;;;;;;;;;;5053276;28;20025;-78
2022/10/14 07:54:10;;;;;;;7.30;5.03;;;;;;;;;;5039537;28;20028;-78
2022/10/14 07:56:37;;;;;;;7.20;5.30;;;;;;;;;;5040034;28;20033;-78
2022/10/14 07:59:04;;;;;;;12.65;5.93;;;;;;;;;;5040388;28;20029;-78
2022/10/14 08:01:30;;;;;;;7.27;5.00;;;;;;;;;;5041264;28;20056;-77
2022/10/14 08:04:01;;;;;;;7.55;5.13;;;;;;;;;;5039883;28;20041;-77
2022/10/14 08:06:27;;;;;;;9.32;6.13;;;;;;;;;;5053996;28;20037;-77
2022/10/14 08:08:53;;;;;;;9.45;5.63;;;;;;;;;;5051890;28;20066;-78
2022/10/14 08:11:20;;;;;;;8.45;5.07;;;;;;;;;;5039745;28;20047;-78
2022/10/14 08:13:47;;;;;;;8.38;5.22;;;;;;;;;;5026315;28;20034;-77
2022/10/14 08:16:17;;;;;;;7.88;5.50;;;;;;;;;;5037947;28;20039;-78
2022/10/14 08:18:44;;;;;;;7.47;5.45;;;;;;;;;;5036347;28;20347;-78
2022/10/14 08:21:11;;;;;;;6.18;4.97;;;;;;;;;;5048412;28;20043;-77
2022/10/14 08:23:37;;;;;;;7.13;5.57;;;;;;;;;;5039563;28;20061;-77
2022/10/14 08:26:03;;;;;;;7.45;5.45;;;;;;;;;;5039467;28;20028;-77
2022/10/14 08:28:29;;;;;;;9.57;5.53;;;;;;;;;;5057107;28;20036;-77
2022/10/14 08:30:55;;;;;;;10.57;6.22;;;;;;;;;;5055635;28;20028;-78
2022/10/14 08:33:25;;;;;;;11.45;5.57;;;;;;;;;;5046436;28;20463;-77
2022/10/14 08:35:51;;;;;;;8.52;6.18;;;;;;;;;;5056442;28;20043;-76
2022/10/14 08:38:17;;;;;;;7.93;4.93;;;;;;;;;;5038746;28;20024;-77
2022/10/14 08:40:53;;;;;;;6.68;5.05;;;;;;;;;;5056423;28;20108;-77
2022/10/14 08:43:24;;;;;;;8.35;6.25;;;;;;;;;;5038761;28;20036;-78
2022/10/14 08:45:54;;;;;;;8.07;5.10;;;;;;;;;;5038693;28;20040;-76
2022/10/14 08:48:22;;;;;;;7.97;4.78;;;;;;;;;;5038724;28;20025;-77
2022/10/14 08:50:50;;;;;;;12.10;5.22;;;;;;;;;;5038980;28;20029;-77
2022/10/14 08:53:19;;;;;;;7.60;5.35;;;;;;;;;;5044289;28;20037;-80
2022/10/14 08:55:51;;;;;;;9.52;4.85;;;;;;;;;;5034922;28;20021;-79
2022/10/14 08:58:18;;;;;;;;;;;;;;;;;;5039717;28;20472;-78
2022/10/14 09:00:49;;;;;;;7.40;4.40;;;;;;;;;;5039386;28;19982;-79
2022/10/14 09:03:17;;;;;;;8.35;4.28;;;;;;;;;;5039123;28;20464;-79
2022/10/14 09:05:46;;;;;;;5.90;4.13;;;;;;;;;;5039068;28;20385;-79
2022/10/14 09:08:14;;;;;;;5.07;4.07;;;;;;;;;;5041414;28;20025;-78
2022/10/14 09:10:41;;;;;;;6.78;5.25;;;;;;;;;;5023189;28;20087;-79
2022/10/14 09:13:10;;;;;;;6.43;4.38;;;;;;;;;;5056367;28;20025;-79
2022/10/14 09:15:44;;;;;;;6.95;4.20;;;;;;;;;;5024538;28;20029;-79
2022/10/14 09:18:13;;;;;;;5.57;4.03;;;;;;;;;;5035516;28;20032;-78
2022/10/14 09:20:40;;;;;;;10.25;4.07;;;;;;;;;;5032190;28;20052;-79
2022/10/14 09:23:17;;;;;;;6.95;4.25;;;;;;;;;;5038758;28;20029;-80
2022/10/14 09:25:48;;;;;;;6.40;3.92;;;;;;;;;;5056144;28;20032;-79
2022/10/14 09:28:14;;;;;;;20.65;5.10;;;;;;;;;;5039174;28;20059;-79
2022/10/14 09:30:40;;;;;;;9.27;5.07;;;;;;;;;;5038872;28;20017;-78
2022/10/14 09:33:06;;;;;;;7.32;3.97;;;;;;;;;;5038360;28;20130;-79
2022/10/14 09:35:36;;;;;;;6.40;4.38;;;;;;;;;;5038298;28;20064;-77
2022/10/14 09:38:06;;;;;;;6.65;4.45;;;;;;;;;;5037937;28;20095;-78
2022/10/14 09:40:38;;;;;;;6.35;4.57;;;;;;;;;;5038410;28;20040;-79
2022/10/14 09:43:12;;;;;;;7.35;4.47;;;;;;;;;;5038471;28;20039;-78
2022/10/14 09:45:50;;;;;;;6.60;3.90;;;;;;;;;;5038419;28;20041;-78
2022/10/14 09:48:19;;;;;;;7.68;4.22;;;;;;;;;;5038434;28;20033;-77
2022/10/14 09:50:50;;;;;;;6.68;4.22;;;;;;;;;;5055754;28;20122;-77
2022/10/14 09:53:29;;;;;;;6.90;4.40;;;;;;;;;;5038742;28;20140;-78
2022/10/14 09:56:00;;;;;;;6.40;3.78;;;;;;;;;;5055947;28;20029;-80
2022/10/14 09:58:31;;;;;;;5.53;3.92;;;;;;;;;;5040228;28;20090;-77
2022/10/14 10:00:58;;;;;;;5.22;3.40;;;;;;;;;;5038765;28;20043;-78
2022/10/14 10:03:26;;;;;;;9.00;4.63;;;;;;;;;;5039524;28;20127;-79
2022/10/14 10:06:00;;;;;;;5.70;3.63;;;;;;;;;;5039781;28;20024;-80
2022/10/14 10:08:30;;;;;;;4.47;3.25;;;;;;;;;;5038477;28;20025;-78
2022/10/14 10:11:04;;;;;;;9.30;5.07;;;;;;;;;;5055606;28;20025;-78
2022/10/14 10:13:32;;;;;;;8.80;4.00;;;;;;;;;;5039667;28;20052;-79
2022/10/14 10:16:02;;;;;;;7.03;4.22;;;;;;;;;;5036042;28;20464;-78
2022/10/14 10:18:28;;;;;;;6.97;4.43;;;;;;;;;;5026521;28;20048;-78
2022/10/14 10:21:01;;;;;;;7.05;3.95;;;;;;;;;;5054785;28;20033;-78
2022/10/14 10:23:28;;;;;;;9.15;4.60;;;;;;;;;;5038333;28;20051;-79
2022/10/14 10:25:54;;;;;;;8.68;4.85;;;;;;;;;;5037454;28;20029;-78
2022/10/14 10:28:30;;;;;;;6.72;3.90;;;;;;;;;;5038424;28;20033;-79
2022/10/14 10:31:15;;;;;;;5.72;4.10;;;;;;;;;;5040923;28;20055;-79
2022/10/14 10:33:47;;;;;;;10.73;4.68;;;;;;;;;;5035214;28;20108;-78
2022/10/14 10:36:22;;;;;;;10.68;4.53;;;;;;;;;;5037641;28;20048;-78
2022/10/14 10:38:51;;;;;;;12.55;4.97;;;;;;;;;;5039618;28;20436;-79
2022/10/14 10:41:30;;;;;;;7.60;4.93;;;;;;;;;;5037637;28;20044;-78
2022/10/14 10:44:07;;;;;;;7.68;4.97;;;;;;;;;;5037433;28;20045;-79
2022/10/14 10:46:34;;;;;;;6.90;5.15;;;;;;;;;;5037485;28;20029;-79
2022/10/14 10:49:05;;;;;;;7.35;5.18;;;;;;;;;;5038215;28;20029;-79
2022/10/14 10:51:38;;;;;;;7.97;4.63;;;;;;;;;;5038172;28;20032;-79
2022/10/14 10:54:23;;;;;;;12.82;5.63;;;;;;;;;;5039746;28;20149;-79
2022/10/14 10:56:56;;;;;;;12.02;5.55;;;;;;;;;;5042506;28;20043;-79
2022/10/14 10:59:46;;;;;;;8.60;5.00;;;;;;;;;;5042035;28;20029;-79
2022/10/14 11:02:12;;;;;;;12.45;5.55;;;;;;;;;;5033254;28;20041;-80
2022/10/14 11:04:41;;;;;;;9.32;5.50;;;;;;;;;;5041706;28;20029;-79
2022/10/14 11:13:00;;;;;;;8.35;5.15;;;;;;;;;;5050256;28;20067;-79
2022/10/14 11:15:29;;;;;;;7.07;4.90;;;;;;;;;;5041340;28;20029;-80
2022/10/14 11:18:28;;;;;;;12.85;6.75;;;;;;;;;;5041020;28;20056;-79
2022/10/14 11:20:54;;;;;;;9.40;5.80;;;;;;;;;;5019229;28;20037;-80
2022/10/14 11:23:35;;;;;;;10.02;6.40;;;;;;;;;;5042290;28;20033;-79
2022/10/14 11:26:17;;;;;;;10.20;6.15;;;;;;;;;;5040556;28;20040;-78
2022/10/14 11:28:52;;;;;;;11.60;6.82;;;;;;;;;;5039595;28;20032;-79
2022/10/14 11:31:26;;;;;;;11.20;6.53;;;;;;;;;;5040337;28;20048;-79
2022/10/14 11:34:10;;;;;;;8.30;6.82;;;;;;;;;;5030236;28;20376;-78
2022/10/14 11:37:10;;;;;;;9.88;6.47;;;;;;;;;;5032279;28;20041;-79
2022/10/14 11:39:39;;;;;;;12.27;6.78;;;;;;;;;;5058252;28;20111;-80
2022/10/14 11:42:10;;;;;;;9.88;5.97;;;;;;;;;;5038212;28;20037;-79
2022/10/14 11:44:40;;;;;;;11.95;7.30;;;;;;;;;;5063923;28;20102;-79
2022/10/14 11:47:09;;;;;;;9.52;7.03;;;;;;;;;;5037675;28;20540;-80
2022/10/14 11:49:49;;;;;;;13.38;7.50;;;;;;;;;;5034819;28;20064;-79
2022/10/14 11:52:27;;;;;;;9.55;6.93;;;;;;;;;;5044911;28;20124;-81
2022/10/14 11:54:56;;;;;;;11.70;6.20;;;;;;;;;;5048495;28;20040;-80
2022/10/14 11:57:31;;;;;;;10.88;7.68;;;;;;;;;;5064279;28;20036;-81
2022/10/14 11:59:58;;;;;;;11.55;6.60;;;;;;;;;;5041110;28;20025;-79
2022/10/14 12:02:25;;;;;;;9.10;6.38;;;;;;;;;;5036471;28;20091;-80
2022/10/14 12:05:05;;;;;;;8.68;6.20;;;;;;;;;;5038434;28;20334;-79
2022/10/14 12:07:51;;;;;;;13.75;7.53;;;;;;;;;;5059947;28;20086;-80
2022/10/14 12:10:27;;;;;;;10.38;6.75;;;;;;;;;;5001562;28;20037;-80
2022/10/14 12:12:54;;;;;;;9.18;6.55;;;;;;;;;;5057955;28;20021;-80
2022/10/14 12:15:22;;;;;;;11.43;7.45;;;;;;;;;;5057657;28;20646;-80
2022/10/14 12:17:57;;;;;;;8.63;6.18;;;;;;;;;;5040165;28;20036;-80
2022/10/14 12:20:25;;;;;;;8.57;5.90;;;;;;;;;;5040341;28;20064;-80
2022/10/14 12:22:56;;;;;;;14.85;7.30;;;;;;;;;;5040285;28;20037;-80
2022/10/14 12:25:24;;;;;;;10.27;7.00;;;;;;;;;;5039941;28;20033;-80
2022/10/14 12:27:51;;;;;;;10.57;6.18;;;;;;;;;;5039983;28;20035;-80
2022/10/14 12:30:32;;;;;;;11.38;6.43;;;;;;;;;;5039972;28;20044;-80
2022/10/14 12:32:59;;;;;;;11.45;6.90;;;;;;;;;;5057613;28;20112;-81
2022/10/14 12:35:44;;;;;;;10.05;5.95;;;;;;;;;;5041189;28;20036;-81
2022/10/14 12:38:10;;;;;;;21.75;14.23;;;;;;;;;;5045023;28;20051;-81
2022/10/14 12:40:39;;;;;;;15.13;9.77;;;;;;;;;;5043857;28;20021;-80
2022/10/14 12:43:25;;;;;;;11.38;8.02;;;;;;;;;;5047891;28;20506;-81
2022/10/14 12:45:59;;;;;;;15.90;9.43;;;;;;;;;;5041953;28;20112;-80
2022/10/14 12:48:29;;;;;;;12.85;8.23;;;;;;;;;;5042656;28;20029;-81
2022/10/14 12:51:15;;;;;;;14.23;8.60;;;;;;;;;;5040239;28;20431;-80
2022/10/14 12:53:53;;;;;;;9.98;7.20;;;;;;;;;;5040260;28;20025;-79
2022/10/14 12:56:32;;;;;;;12.55;8.05;;;;;;;;;;5039691;28;20032;-79
2022/10/14 12:59:02;;;;;;;14.52;7.55;;;;;;;;;;5039595;28;20033;-80
2022/10/14 13:01:29;;;;;;;9.23;6.10;;;;;;;;;;5031376;28;20057;-80
2022/10/14 13:04:04;;;;;;;9.68;6.30;;;;;;;;;;5039339;28;20764;-80
2022/10/14 13:06:38;;;;;;;7.30;4.82;;;;;;;;;;5039327;28;20083;-79
2022/10/14 13:09:14;;;;;;;10.40;6.80;;;;;;;;;;5040004;28;20029;-79
2022/10/14 13:11:40;;;;;;;10.13;6.75;;;;;;;;;;5029169;28;20035;-79
2022/10/14 13:14:25;;;;;;;9.07;6.13;;;;;;;;;;5020269;28;20026;-79
2022/10/14 13:16:51;;;;;;;6.68;5.45;;;;;;;;;;5019009;28;20347;-80
2022/10/14 13:19:33;;;;;;;6.30;4.95;;;;;;;;;;5054782;28;20044;-81
2022/10/14 13:22:00;;;;;;;9.80;5.53;;;;;;;;;;5057357;28;20029;-80
2022/10/14 13:24:30;;;;;;;6.63;4.90;;;;;;;;;;5040174;28;20134;-80
2022/10/14 13:27:33;;;;;;;9.60;5.72;;;;;;;;;;5040910;28;20404;-80
2022/10/14 13:29:59;;;;;;;;;;;;;;;;;;5067437;28;20025;-81
2022/10/14 13:32:41;;;;;;;7.32;5.30;;;;;;;;;;5044135;28;19931;-80
2022/10/14 13:35:21;;;;;;;6.47;4.75;;;;;;;;;;5041210;28;20129;-81
2022/10/14 13:38:01;;;;;;;7.60;4.57;;;;;;;;;;5049750;28;20091;-80
2022/10/14 13:40:33;;;;;;;6.18;4.78;;;;;;;;;;5051682;28;20029;-80
2022/10/14 13:43:00;;;;;;;7.13;4.45;;;;;;;;;;5034737;28;21026;-80
2022/10/14 13:45:39;;;;;;;10.75;5.25;;;;;;;;;;5038477;28;20025;-80
2022/10/14 13:48:05;;;;;;;6.78;4.60;;;;;;;;;;5034491;28;20092;-80
2022/10/14 13:50:35;;;;;;;12.80;6.95;;;;;;;;;;5042188;28;20086;-79
2022/10/14 13:53:03;;;;;;;6.60;4.75;;;;;;;;;;5051893;28;20025;-79
2022/10/14 13:55:29;;;;;;;9.93;6.72;;;;;;;;;;5036648;28;20055;-80
2022/10/14 13:58:22;;;;;;;6.63;5.10;;;;;;;;;;5057982;28;20017;-80
2022/10/14 14:00:57;;;;;;;9.82;5.60;;;;;;;;;;5034708;28;20060;-79
2022/10/14 14:03:29;;;;;;;7.53;4.95;;;;;;;;;;5052235;28;20037;-80
2022/10/14 14:05:57;;;;;;;9.30;5.63;;;;;;;;;;5049518;28;20037;-80
2022/10/14 14:08:28;;;;;;;9.30;5.65;;;;;;;;;;5038214;28;20025;-80
2022/10/14 14:10:59;;;;;;;9.98;7.55;;;;;;;;;;5029003;28;20025;-80
2022/10/14 14:13:25;;;;;;;8.27;4.60;;;;;;;;;;5036288;28;20126;-79
2022/10/14 14:15:52;;;;;;;8.77;6.22;;;;;;;;;;5037474;28;20041;-80
2022/10/14 14:18:51;;;;;;;8.38;5.93;;;;;;;;;;5037026;28;20033;-79
2022/10/14 14:21:23;;;;;;;9.65;5.97;;;;;;;;;;5020778;28;20859;-80
2022/10/14 14:23:49;;;;;;;;;;;;;;;;;;5050987;28;20033;-79
2022/10/14 14:26:21;;;;;;;8.15;5.20;;;;;;;;;;5048009;28;19986;-80
2022/10/14 14:28:47;;;;;;;6.57;4.85;;;;;;;;;;5031887;28;20137;-79
2022/10/14 14:31:21;;;;;;;13.98;5.63;;;;;;;;;;5027232;28;20079;-79
2022/10/14 14:33:49;;;;;;;7.55;4.13;;;;;;;;;;5035663;28;20056;-79
2022/10/14 14:36:19;;;;;;;9.35;6.40;;;;;;;;;;5049072;28;20060;-80
2022/10/14 14:38:55;;;;;;;13.07;5.72;;;;;;;;;;5034355;28;20112;-79
2022/10/14 14:41:22;;;;;;;7.78;4.38;;;;;;;;;;5032376;28;20373;-80
2022/10/14 14:43:50;;;;;;;7.70;5.70;;;;;;;;;;5034831;28;20059;-79
2022/10/14 14:46:19;;;;;;;5.53;4.43;;;;;;;;;;5052325;28;20021;-80
2022/10/14 14:48:49;;;;;;;7.30;4.63;;;;;;;;;;5036215;28;20029;-79
2022/10/14 14:51:16;;;;;;;7.88;5.75;;;;;;;;;;5029904;28;20451;-80
2022/10/14 14:53:45;;;;;;;8.48;5.75;;;;;;;;;;5030711;28;20086;-80
2022/10/14 14:56:13;;;;;;;9.10;4.93;;;;;;;;;;5035509;28;20381;-78